createdAt,value
2019-02-07T00:00:54.884Z,97668.36
2019-02-07T00:03:24.389Z,97666.39
2019-02-07T00:05:53.850Z,97662.02
2019-02-07T00:08:23.502Z,97662.52
2019-02-07T00:10:52.988Z,97665.66
2019-02-07T00:13:22.514Z,97666.86
2019-02-07T00:15:51.973Z,97664.91
2019-02-07T00:18:21.466Z,97671.10
2019-02-07T00:20:51.331Z,97660.73
2019-02-07T00:23:21.602Z,97665.33
2019-02-07T00:25:51.037Z,97660.94
2019-02-07T00:28:20.422Z,97655.63
2019-02-07T00:30:49.799Z,97652.18
2019-02-07T00:33:19.262Z,97648.45
2019-02-07T00:35:48.895Z,97639.53
2019-02-07T00:38:18.320Z,97639.95
2019-02-07T00:40:47.763Z,97637.91
2019-02-07T00:43:17.127Z,97642.50
2019-02-07T00:45:46.505Z,97634.09
2019-02-07T00:48:15.886Z,97637.70
2019-02-07T00:50:45.234Z,97633.34
2019-02-07T00:53:14.638Z,97620.48
2019-02-07T00:55:44.128Z,97619.14
2019-02-07T00:58:13.509Z,97617.00
2019-02-07T01:00:42.948Z,97607.09
2019-02-07T01:03:12.480Z,97602.34
2019-02-07T01:05:42.130Z,97599.80
2019-02-07T01:08:11.721Z,97604.91
2019-02-07T01:10:41.136Z,97607.06
2019-02-07T01:13:10.867Z,97607.44
2019-02-07T01:15:40.298Z,97603.75
2019-02-07T01:18:10.103Z,97593.75
2019-02-07T01:20:39.894Z,97588.03
2019-02-07T01:23:09.393Z,97588.34
2019-02-07T01:25:38.804Z,97587.37
2019-02-07T01:28:08.226Z,97588.59
2019-02-07T01:30:37.862Z,97590.77
2019-02-07T01:33:07.264Z,97584.95
2019-02-07T01:35:36.911Z,97583.33
2019-02-07T01:38:06.330Z,97575.20
2019-02-07T01:40:35.687Z,97560.95
2019-02-07T01:43:05.587Z,97561.44
2019-02-07T01:45:34.937Z,97559.84
2019-02-07T01:48:04.466Z,97555.30
2019-02-07T01:50:34.115Z,97550.89
2019-02-07T01:53:03.460Z,97547.30
2019-02-07T01:55:32.820Z,97538.47
2019-02-07T01:58:02.346Z,97529.44
2019-02-07T02:00:31.808Z,97530.17
2019-02-07T02:03:01.189Z,97525.57
2019-02-07T02:05:30.840Z,97520.88
2019-02-07T02:08:00.177Z,97507.44
2019-02-07T02:10:29.854Z,97514.20
2019-02-07T02:12:59.370Z,97522.34
2019-02-07T02:15:28.841Z,97517.41
2019-02-07T02:17:58.284Z,97512.97
2019-02-07T02:20:27.896Z,97509.33
2019-02-07T02:22:57.323Z,97505.64
2019-02-07T02:25:26.699Z,97501.52
2019-02-07T02:27:56.208Z,97492.23
2019-02-07T02:30:28.026Z,97489.15
2019-02-07T02:32:57.450Z,97483.52
2019-02-07T02:35:26.937Z,97464.28
2019-02-07T02:37:56.291Z,97474.64
2019-02-07T02:40:26.085Z,97474.00
2019-02-07T02:42:55.929Z,97473.61
2019-02-07T02:48:14.243Z,97479.80
2019-02-07T02:50:43.777Z,97486.57
2019-02-07T02:53:13.313Z,97480.74
2019-02-07T02:55:44.128Z,97475.73
2019-02-07T02:58:13.741Z,97470.77
2019-02-07T03:01:00.857Z,97477.70
2019-02-07T03:03:35.582Z,97467.98
2019-02-07T03:06:27.027Z,97462.81
2019-02-07T03:09:14.304Z,97460.56
2019-02-07T03:12:08.904Z,97462.27
2019-02-07T03:15:01.952Z,97452.84
2019-02-07T03:17:50.848Z,97453.55
2019-02-07T03:20:42.225Z,97440.25
2019-02-07T03:23:36.721Z,97438.27
2019-02-07T03:26:19.318Z,97440.99
2019-02-07T03:28:59.151Z,97440.77
2019-02-07T03:31:49.497Z,97440.28
2019-02-07T03:34:37.887Z,97442.59
2019-02-07T03:37:16.297Z,97436.77
2019-02-07T03:40:23.107Z,97426.41
2019-02-07T03:43:11.674Z,97432.06
2019-02-07T03:46:02.808Z,97428.79
2019-02-07T03:48:49.171Z,97430.66
2019-02-07T03:51:28.608Z,97418.04
2019-02-07T03:54:23.645Z,97400.58
2019-02-07T03:57:11.279Z,97404.28
2019-02-07T04:00:06.723Z,97397.77
2019-02-07T04:02:45.161Z,97394.57
2019-02-07T04:05:23.520Z,97403.31
2019-02-07T04:08:12.085Z,97404.94
2019-02-07T04:10:53.976Z,97406.35
2019-02-07T04:13:41.287Z,97400.99
2019-02-07T04:16:19.709Z,97400.61
2019-02-07T04:19:11.054Z,97402.03
2019-02-07T04:21:55.633Z,97395.56
2019-02-07T04:24:56.777Z,97394.16
2019-02-07T04:27:41.361Z,97395.92
2019-02-07T04:30:25.064Z,97387.51
2019-02-07T04:33:28.888Z,97383.67
2019-02-07T04:36:14.852Z,97392.84
2019-02-07T04:38:52.899Z,97392.84
2019-02-07T04:41:44.689Z,97385.66
2019-02-07T04:44:48.530Z,97390.20
2019-02-07T04:47:40.221Z,97390.12
2019-02-07T04:50:26.076Z,97381.93
2019-02-07T04:53:23.449Z,97377.88
2019-02-07T04:56:10.659Z,97361.41
2019-02-07T04:59:08.316Z,97353.55
2019-02-07T05:01:50.485Z,97357.28
2019-02-07T05:04:41.837Z,97346.20
2019-02-07T05:07:29.243Z,97346.78
2019-02-07T05:10:33.337Z,97353.34
2019-02-07T05:13:20.586Z,97353.63
2019-02-07T05:16:09.248Z,97358.93
2019-02-07T05:18:57.779Z,97353.64
2019-02-07T05:21:45.042Z,97352.52
2019-02-07T05:24:29.774Z,97351.22
2019-02-07T05:27:07.095Z,97353.76
2019-02-07T05:30:01.550Z,97349.09
2019-02-07T05:32:40.303Z,97348.37
2019-02-07T05:35:24.891Z,97338.72
2019-02-07T05:38:11.090Z,97340.55
2019-02-07T05:41:17.746Z,97338.11
2019-02-07T05:44:18.308Z,97346.75
2019-02-07T05:47:15.927Z,97340.97
2019-02-07T05:49:59.850Z,97334.83
2019-02-07T05:52:40.431Z,97333.20
2019-02-07T05:55:27.857Z,97327.57
2019-02-07T05:58:10.444Z,97326.88
2019-02-07T06:00:55.791Z,97331.31
2019-02-07T06:03:47.531Z,97334.83
2019-02-07T06:06:35.019Z,97318.52
2019-02-07T06:09:30.156Z,97315.02
2019-02-07T06:12:25.015Z,97313.33
2019-02-07T06:15:10.214Z,97322.47
2019-02-07T06:18:17.092Z,97322.61
2019-02-07T06:21:23.862Z,97323.78
2019-02-07T06:24:12.713Z,97328.13
2019-02-07T06:27:16.451Z,97333.25
2019-02-07T06:29:57.749Z,97326.14
2019-02-07T06:32:46.514Z,97337.82
2019-02-07T06:35:33.793Z,97337.17
2019-02-07T06:38:13.295Z,97341.00
2019-02-07T06:41:02.006Z,97339.16
2019-02-07T06:43:59.662Z,97348.61
2019-02-07T06:46:54.216Z,97350.26
2019-02-07T06:49:53.139Z,97351.75
2019-02-07T06:52:36.522Z,97351.24
2019-02-07T06:55:24.642Z,97353.12
2019-02-07T06:58:16.267Z,97354.80
2019-02-07T07:01:08.256Z,97342.66
2019-02-07T07:03:57.729Z,97335.42
2019-02-07T07:06:49.571Z,97341.06
2019-02-07T07:09:41.281Z,97326.75
2019-02-07T07:12:19.607Z,97349.30
2019-02-07T07:15:06.314Z,97356.95
2019-02-07T07:17:53.674Z,97355.84
2019-02-07T07:20:42.334Z,97350.85
2019-02-07T07:23:33.988Z,97350.77
2019-02-07T07:26:38.591Z,97352.46
2019-02-07T07:29:18.611Z,97346.77
2019-02-07T07:32:02.507Z,97334.91
2019-02-07T07:34:49.540Z,97335.45
2019-02-07T07:37:39.055Z,97341.77
2019-02-07T07:40:26.990Z,97337.95
2019-02-07T07:43:18.680Z,97333.48
2019-02-07T07:46:13.107Z,97337.95
2019-02-07T07:49:10.520Z,97344.37
2019-02-07T07:51:55.471Z,97346.64
2019-02-07T07:54:44.829Z,97343.33
2019-02-07T07:57:31.716Z,97342.73
2019-02-07T08:00:19.253Z,97336.45
2019-02-07T08:03:05.435Z,97340.61
2019-02-07T08:05:54.057Z,97345.48
2019-02-07T08:08:41.564Z,97331.92
2019-02-07T08:11:30.165Z,97333.08
2019-02-07T08:14:17.962Z,97329.88
2019-02-07T08:17:09.526Z,97331.97
2019-02-07T08:20:01.318Z,97340.32
2019-02-07T08:22:48.395Z,97341.89
2019-02-07T08:25:40.069Z,97336.84
2019-02-07T08:28:31.457Z,97331.23
2019-02-07T08:31:18.117Z,97324.33
2019-02-07T08:34:05.258Z,97330.65
2019-02-07T08:37:09.594Z,97334.70
2019-02-07T08:39:58.237Z,97328.80
2019-02-07T08:42:58.735Z,97323.17
2019-02-07T08:45:47.354Z,97321.66
2019-02-07T08:48:34.843Z,97318.59
2019-02-07T08:51:12.599Z,97318.91
2019-02-07T08:53:50.975Z,97317.64
2019-02-07T08:56:39.801Z,97318.59
2019-02-07T08:59:23.370Z,97309.02
2019-02-07T09:02:01.321Z,97308.41
2019-02-07T09:04:52.597Z,97307.66
2019-02-07T09:07:39.663Z,97308.66
2019-02-07T09:10:31.480Z,97307.22
2019-02-07T09:13:28.943Z,97306.80
2019-02-07T09:16:32.493Z,97302.77
2019-02-07T09:19:21.129Z,97305.87
2019-02-07T09:22:01.979Z,97304.34
2019-02-07T09:24:56.273Z,97298.34
2019-02-07T09:27:48.011Z,97286.05
2019-02-07T09:30:34.984Z,97293.22
2019-02-07T09:33:36.843Z,97285.80
2019-02-07T09:36:20.130Z,97281.36
2019-02-07T09:39:09.588Z,97298.20
2019-02-07T09:42:01.114Z,97295.66
2019-02-07T09:44:48.507Z,97289.63
2019-02-07T09:47:37.089Z,97290.13
2019-02-07T09:50:20.108Z,97287.50
2019-02-07T09:53:00.721Z,97299.62
2019-02-07T09:55:44.432Z,97301.41
2019-02-07T09:58:41.918Z,97298.80
2019-02-07T10:01:29.359Z,97303.63
2019-02-07T10:04:30.161Z,97295.58
2019-02-07T10:07:10.478Z,97288.53
2019-02-07T10:10:03.161Z,97291.39
2019-02-07T10:13:03.640Z,97291.66
2019-02-07T10:16:06.257Z,97293.56
2019-02-07T10:18:52.515Z,97297.42
2019-02-07T10:21:51.661Z,97279.91
2019-02-07T10:24:45.299Z,97280.78
2019-02-07T10:27:36.942Z,97270.19
2019-02-07T10:30:21.436Z,97268.67
2019-02-07T10:33:01.219Z,97267.27
2019-02-07T10:35:50.046Z,97258.61
2019-02-07T10:38:44.504Z,97258.42
2019-02-07T10:41:32.055Z,97264.18
2019-02-07T10:44:36.911Z,97259.56
2019-02-07T10:47:31.208Z,97246.06
2019-02-07T10:50:16.499Z,97253.72
2019-02-07T10:53:23.009Z,97246.30
2019-02-07T10:56:11.503Z,97241.95
2019-02-07T10:58:49.431Z,97240.05
2019-02-07T11:01:41.219Z,97232.13
2019-02-07T11:04:29.915Z,97220.42
2019-02-07T11:07:21.365Z,97222.95
2019-02-07T11:10:08.715Z,97215.98
2019-02-07T11:13:03.298Z,97209.00
2019-02-07T11:16:03.867Z,97207.00
2019-02-07T11:18:55.550Z,97204.52
2019-02-07T11:21:52.086Z,97207.12
2019-02-07T11:24:48.688Z,97194.20
2019-02-07T11:27:55.218Z,97197.93
2019-02-07T11:30:41.977Z,97195.83
2019-02-07T11:33:29.297Z,97192.47
2019-02-07T11:36:17.810Z,97180.26
2019-02-07T11:39:15.784Z,97178.46
2019-02-07T11:42:16.436Z,97180.18
2019-02-07T11:45:01.429Z,97179.86
2019-02-07T11:47:49.562Z,97186.52
2019-02-07T11:50:31.797Z,97177.84
2019-02-07T11:53:19.724Z,97183.78
2019-02-07T11:56:14.133Z,97176.89
2019-02-07T11:59:02.008Z,97186.83
2019-02-07T12:01:47.732Z,97176.08
2019-02-07T12:04:34.997Z,97165.64
2019-02-07T12:07:27.295Z,97167.19
2019-02-07T12:10:15.851Z,97161.68
2019-02-07T12:13:04.451Z,97175.13
2019-02-07T12:15:40.420Z,97154.24
2019-02-07T12:18:21.329Z,97161.31
2019-02-07T12:21:09.918Z,97146.91
2019-02-07T12:23:58.415Z,97156.14
2019-02-07T12:26:43.291Z,97159.22
2019-02-07T12:29:34.803Z,97154.18
2019-02-07T12:32:35.904Z,97152.97
2019-02-07T12:35:42.829Z,97151.67
2019-02-07T12:38:37.794Z,97147.34
2019-02-07T12:41:39.377Z,97150.57
2019-02-07T12:44:27.472Z,97135.55
2019-02-07T12:47:09.956Z,97154.80
2019-02-07T12:49:57.155Z,97145.14
2019-02-07T12:52:45.780Z,97150.17
2019-02-07T12:55:52.407Z,97152.59
2019-02-07T12:58:41.503Z,97147.94
2019-02-07T13:01:33.069Z,97146.02
2019-02-07T13:04:17.609Z,97149.75
2019-02-07T13:07:06.858Z,97150.09
2019-02-07T13:09:53.743Z,97145.47
2019-02-07T13:12:38.517Z,97146.44
2019-02-07T13:15:30.812Z,97143.84
2019-02-07T13:18:34.332Z,97146.26
2019-02-07T13:21:31.814Z,97142.72
2019-02-07T13:24:18.948Z,97140.67
2019-02-07T13:27:02.126Z,97145.89
2019-02-07T13:30:05.853Z,97143.98
2019-02-07T13:32:51.689Z,97137.78
2019-02-07T13:35:40.341Z,97143.47
2019-02-07T13:38:27.671Z,97139.49
2019-02-07T13:41:21.835Z,97140.23
2019-02-07T13:44:09.291Z,97133.31
2019-02-07T13:46:50.287Z,97142.91
2019-02-07T13:49:51.718Z,97141.61
2019-02-07T13:52:32.173Z,97140.48
2019-02-07T13:55:12.583Z,97140.40
2019-02-07T13:57:52.308Z,97145.15
2019-02-07T14:00:41.305Z,97139.92
2019-02-07T14:03:28.652Z,97151.48
2019-02-07T14:06:21.495Z,97142.72
2019-02-07T14:09:08.644Z,97141.52
2019-02-07T14:11:55.621Z,97147.76
2019-02-07T14:14:38.246Z,97143.66
2019-02-07T14:17:26.127Z,97142.34
2019-02-07T14:20:13.341Z,97144.59
2019-02-07T14:22:54.310Z,97136.33
2019-02-07T14:25:45.830Z,97142.39
2019-02-07T14:28:27.471Z,97138.25
2019-02-07T14:31:11.849Z,97140.86
2019-02-07T14:34:18.616Z,97148.53
2019-02-07T14:37:05.830Z,97146.08
2019-02-07T14:39:52.787Z,97144.64
2019-02-07T14:42:44.731Z,97139.83
2019-02-07T14:45:32.170Z,97144.22
2019-02-07T14:48:01.878Z,97145.80
2019-02-07T14:50:31.569Z,97148.88
2019-02-07T14:53:02.113Z,97149.62
2019-02-07T14:55:31.793Z,97140.49
2019-02-07T14:58:01.410Z,97150.59
2019-02-07T15:00:31.440Z,97150.45
2019-02-07T15:03:00.989Z,97151.66
2019-02-07T15:05:31.502Z,97153.34
2019-02-07T15:08:01.433Z,97148.88
2019-02-07T15:10:31.074Z,97156.59
2019-02-07T15:13:01.322Z,97157.99
2019-02-07T15:15:31.065Z,97155.47
2019-02-07T15:18:00.653Z,97159.37
2019-02-07T15:20:30.234Z,97154.44
2019-02-07T15:23:00.247Z,97159.19
2019-02-07T15:25:29.959Z,97148.84
2019-02-07T15:27:59.665Z,97152.39
2019-02-07T15:30:29.516Z,97153.89
2019-02-07T15:32:59.125Z,97144.02
2019-02-07T15:35:31.803Z,97148.77
2019-02-07T15:38:01.488Z,97144.41
2019-02-07T15:40:32.521Z,97146.92
2019-02-07T15:43:02.285Z,97151.30
2019-02-07T15:45:31.901Z,97146.64
2019-02-07T15:48:01.653Z,97147.10
2019-02-07T15:50:37.609Z,97144.78
2019-02-07T15:53:03.618Z,97140.30
2019-02-07T15:55:33.284Z,97143.47
2019-02-07T15:58:02.935Z,97145.98
2019-02-07T16:00:52.301Z,97137.41
2019-02-07T16:03:29.717Z,97129.50
2019-02-07T16:05:59.317Z,97130.69
2019-02-07T16:08:29.116Z,97135.27
2019-02-07T16:10:58.722Z,97138.89
2019-02-07T16:13:28.458Z,97141.30
2019-02-07T16:15:58.191Z,97147.35
2019-02-07T16:18:27.876Z,97147.73
2019-02-07T16:20:57.484Z,97151.53
2019-02-07T16:23:27.316Z,97154.42
2019-02-07T16:25:57.013Z,97151.34
2019-02-07T16:28:26.857Z,97158.91
2019-02-07T16:30:56.664Z,97157.41
2019-02-07T16:33:26.323Z,97155.36
2019-02-07T16:35:56.021Z,97152.58
2019-02-07T16:38:25.671Z,97162.62
2019-02-07T16:40:55.580Z,97165.94
2019-02-07T16:43:25.879Z,97164.24
2019-02-07T16:45:55.546Z,97167.02
2019-02-07T16:48:25.204Z,97164.99
2019-02-07T16:51:00.172Z,97170.75
2019-02-07T16:53:26.405Z,97171.91
2019-02-07T16:55:56.099Z,97179.45
2019-02-07T16:58:25.770Z,97174.51
2019-02-07T17:00:55.381Z,97176.19
2019-02-07T17:03:24.987Z,97178.91
2019-02-07T17:05:54.615Z,97181.29
2019-02-07T17:08:24.172Z,97185.22
2019-02-07T17:10:53.867Z,97181.75
2019-02-07T17:13:23.473Z,97187.86
2019-02-07T17:15:53.084Z,97182.33
2019-02-07T17:18:22.834Z,97195.73
2019-02-07T17:20:52.406Z,97198.63
2019-02-07T17:23:22.113Z,97199.46
2019-02-07T17:25:51.774Z,97195.87
2019-02-07T17:28:21.656Z,97192.77
2019-02-07T17:30:51.257Z,97195.91
2019-02-07T17:33:21.429Z,97198.14
2019-02-07T17:35:51.070Z,97194.31
2019-02-07T17:38:20.597Z,97198.16
2019-02-07T17:40:50.318Z,97202.53
2019-02-07T17:43:20.888Z,97206.35
2019-02-07T17:45:50.462Z,97198.69
2019-02-07T17:48:20.410Z,97209.17
2019-02-07T17:50:49.951Z,97211.52
2019-02-07T17:53:19.471Z,97214.29
2019-02-07T17:55:49.427Z,97219.33
2019-02-07T17:58:19.020Z,97213.50
2019-02-07T18:00:57.208Z,97214.70
2019-02-07T18:03:26.795Z,97221.18
2019-02-07T18:05:56.440Z,97225.81
2019-02-07T18:08:26.125Z,97227.75
2019-02-07T18:10:55.763Z,97228.84
2019-02-07T18:13:25.361Z,97228.50
2019-02-07T18:15:57.422Z,97231.48
2019-02-07T18:18:26.234Z,97221.91
2019-02-07T18:20:55.813Z,97228.21
2019-02-07T18:23:25.388Z,97222.77
2019-02-07T18:25:54.937Z,97224.27
2019-02-07T18:28:24.538Z,97226.39
2019-02-07T18:30:54.139Z,97225.27
2019-02-07T18:33:23.706Z,97228.30
2019-02-07T18:35:53.373Z,97236.95
2019-02-07T18:38:23.051Z,97240.31
2019-02-07T18:40:52.659Z,97229.80
2019-02-07T18:43:22.333Z,97236.61
2019-02-07T18:45:51.961Z,97227.14
2019-02-07T18:48:21.484Z,97225.47
2019-02-07T18:50:51.138Z,97221.53
2019-02-07T18:53:20.897Z,97210.00
2019-02-07T18:55:50.638Z,97209.05
2019-02-07T18:58:20.304Z,97203.58
2019-02-07T19:00:49.929Z,97207.05
2019-02-07T19:03:19.481Z,97207.78
2019-02-07T19:05:49.235Z,97224.56
2019-02-07T19:08:18.855Z,97221.38
2019-02-07T19:10:48.501Z,97215.78
2019-02-07T19:13:18.107Z,97228.34
2019-02-07T19:15:50.592Z,97229.31
2019-02-07T19:18:20.313Z,97231.16
2019-02-07T19:20:49.883Z,97242.50
2019-02-07T19:23:19.860Z,97246.58
2019-02-07T19:25:49.471Z,97247.71
2019-02-07T19:28:19.077Z,97247.88
2019-02-07T19:30:48.752Z,97249.97
2019-02-07T19:33:22.364Z,97252.00
2019-02-07T19:35:51.045Z,97253.97
2019-02-07T19:38:21.151Z,97260.14
2019-02-07T19:40:50.764Z,97253.83
2019-02-07T19:43:20.473Z,97262.48
2019-02-07T19:45:50.146Z,97253.83
2019-02-07T19:48:19.982Z,97255.89
2019-02-07T19:50:49.773Z,97254.70
2019-02-07T19:53:20.020Z,97251.92
2019-02-07T19:55:49.585Z,97255.28
2019-02-07T19:58:21.316Z,97263.39
2019-02-07T20:00:50.977Z,97269.99
2019-02-07T20:03:20.566Z,97263.51
2019-02-07T20:05:50.193Z,97270.02
2019-02-07T20:08:20.022Z,97273.27
2019-02-07T20:10:49.639Z,97272.94
2019-02-07T20:13:19.471Z,97276.35
2019-02-07T20:15:49.114Z,97277.36
2019-02-07T20:18:18.728Z,97279.05
2019-02-07T20:20:48.302Z,97277.23
2019-02-07T20:23:18.296Z,97293.20
2019-02-07T20:25:47.834Z,97296.91
2019-02-07T20:28:17.519Z,97304.63
2019-02-07T20:33:16.715Z,97296.77
2019-02-07T20:35:46.367Z,97305.34
2019-02-07T20:38:15.978Z,97312.11
2019-02-07T20:40:45.837Z,97307.19
2019-02-07T20:43:15.533Z,97300.89
2019-02-07T20:45:45.173Z,97300.56
2019-02-07T20:48:14.710Z,97306.06
2019-02-07T20:50:44.264Z,97305.44
2019-02-07T20:53:17.491Z,97303.25
2019-02-07T20:55:47.525Z,97313.75
2019-02-07T20:58:17.153Z,97314.09
2019-02-07T21:00:46.783Z,97317.20
2019-02-07T21:03:16.374Z,97325.50
2019-02-07T21:05:45.966Z,97312.91
2019-02-07T21:08:15.526Z,97320.69
2019-02-07T21:10:45.130Z,97331.56
2019-02-07T21:13:14.749Z,97321.48
2019-02-07T21:15:44.228Z,97320.64
2019-02-07T21:18:13.852Z,97329.62
2019-02-07T21:20:43.433Z,97335.38
2019-02-07T21:23:13.063Z,97340.59
2019-02-07T21:25:48.123Z,97337.27
2019-02-07T21:28:17.830Z,97344.16
2019-02-07T21:30:47.455Z,97341.54
2019-02-07T21:33:17.037Z,97346.88
2019-02-07T21:35:46.685Z,97345.06
2019-02-07T21:38:16.381Z,97341.41
2019-02-07T21:40:45.932Z,97346.91
2019-02-07T21:43:15.816Z,97359.30
2019-02-07T21:45:45.460Z,97361.97
2019-02-07T21:48:15.030Z,97360.80
2019-02-07T21:50:44.589Z,97358.98
2019-02-07T21:53:14.211Z,97362.38
2019-02-07T21:55:43.860Z,97371.56
2019-02-07T21:58:13.733Z,97372.87
2019-02-07T22:00:44.646Z,97370.32
2019-02-07T22:03:15.069Z,97378.70
2019-02-07T22:05:44.848Z,97388.33
2019-02-07T22:08:14.507Z,97391.23
2019-02-07T22:10:44.182Z,97392.13
2019-02-07T22:13:14.089Z,97385.41
2019-02-07T22:15:43.707Z,97385.95
2019-02-07T22:18:13.296Z,97392.45
2019-02-07T22:20:42.874Z,97392.48
2019-02-07T22:23:12.700Z,97399.47
2019-02-07T22:25:42.279Z,97397.22
2019-02-07T22:28:12.255Z,97400.67
2019-02-07T22:30:41.917Z,97407.02
2019-02-07T22:33:11.585Z,97410.08
2019-02-07T22:35:41.179Z,97416.19
2019-02-07T22:38:10.776Z,97415.23
2019-02-07T22:40:40.442Z,97421.96
2019-02-07T22:43:10.308Z,97424.55
2019-02-07T22:45:39.950Z,97419.44
2019-02-07T22:48:09.608Z,97423.36
2019-02-07T22:50:39.631Z,97425.19
2019-02-07T22:53:09.244Z,97433.22
2019-02-07T22:55:38.905Z,97432.14
2019-02-07T22:58:09.398Z,97434.13
2019-02-07T23:01:26.414Z,97434.13
2019-02-07T23:03:58.108Z,97439.80
2019-02-07T23:06:27.760Z,97439.09
2019-02-07T23:08:57.530Z,97447.06
2019-02-07T23:11:27.282Z,97443.16
2019-02-07T23:13:56.926Z,97439.97
2019-02-07T23:16:26.944Z,97437.28
2019-02-07T23:18:56.530Z,97434.30
2019-02-07T23:21:26.109Z,97437.36
2019-02-07T23:23:55.783Z,97435.58
2019-02-07T23:26:25.622Z,97449.27
2019-02-07T23:28:55.180Z,97447.73
2019-02-07T23:31:25.185Z,97455.32
2019-02-07T23:33:54.755Z,97455.28
2019-02-07T23:36:24.332Z,97462.03
2019-02-07T23:38:53.901Z,97467.14
2019-02-07T23:41:23.476Z,97470.37
2019-02-07T23:43:53.129Z,97470.85
2019-02-07T23:46:23.415Z,97479.89
2019-02-07T23:48:53.022Z,97480.73
2019-02-07T23:51:22.599Z,97481.13
2019-02-07T23:53:52.346Z,97480.51
2019-02-07T23:56:21.915Z,97483.27
2019-02-07T23:58:51.488Z,97484.88
